Time;durP1;ratioP1;P1;durP2;ratioP2;P2;SDS_P1;SDS_P2;PMS_P1;PMS_P2;Temp;Humidity;BMP_temperature;BMP_pressure;BME280_temperature;BME280_humidity;BME280_pressure;Samples;Min_cycle;Max_cycle;Signal;HPM_P1;HPM_P2
2021/12/22 00:01:24;;;;;;;;;;;-0.60;99.90;;;;;;5113639;28;20278;-50
2021/12/22 00:03:51;;;;;;;;;;;-0.60;99.90;;;;;;5113768;28;20391;-50
2021/12/22 00:06:20;;;;;;;;;;;-0.50;99.90;;;;;;5113940;27;20327;-50
2021/12/22 00:08:47;;;;;;;;;;;-0.60;99.90;;;;;;5113588;28;19931;-50
2021/12/22 00:11:14;;;;;;;;;;;-0.70;99.90;;;;;;5113106;28;19928;-50
2021/12/22 00:13:42;;;;;;;;;;;-0.70;99.90;;;;;;5113180;28;19969;-50
2021/12/22 00:16:08;;;;;;;;;;;-0.60;99.90;;;;;;5113594;28;19924;-50
2021/12/22 00:18:36;;;;;;;;;;;-0.70;99.90;;;;;;5100113;28;19984;-50
2021/12/22 00:21:03;;;;;;;;;;;-0.80;99.90;;;;;;5093090;28;19931;-50
2021/12/22 00:23:30;;;;;;;;;;;-0.70;99.90;;;;;;5099343;28;20423;-50
2021/12/22 00:26:00;;;;;;;;;;;-0.80;99.90;;;;;;5110472;28;19923;-50
2021/12/22 00:28:27;;;;;;;;;;;-0.80;99.90;;;;;;5109276;28;19924;-51
2021/12/22 00:30:56;;;;;;;;;;;-0.70;99.90;;;;;;5109879;28;19972;-50
2021/12/22 00:33:23;;;;;;;;;;;-0.80;99.90;;;;;;5111653;28;19928;-50
2021/12/22 00:35:49;;;;;;;;;;;-0.80;99.90;;;;;;5112316;28;20393;-50
2021/12/22 00:38:17;;;;;;;;;;;-0.80;99.90;;;;;;5113262;28;19951;-49
2021/12/22 00:40:44;;;;;;;;;;;-0.80;99.90;;;;;;5113104;28;19923;-50
2021/12/22 00:43:11;;;;;;;;;;;-0.90;99.90;;;;;;5113213;28;20044;-50
2021/12/22 00:45:38;;;;;;;;;;;-0.90;99.90;;;;;;5113311;28;19931;-50
2021/12/22 00:48:07;;;;;;;;;;;-0.90;99.90;;;;;;5112899;28;20359;-50
2021/12/22 00:50:35;;;;;;;;;;;-0.90;99.90;;;;;;5112532;28;19977;-50
2021/12/22 00:53:02;;;;;;;;;;;-0.80;99.90;;;;;;5112988;28;19993;-50
2021/12/22 00:55:28;;;;;;;;;;;-0.70;99.90;;;;;;5113151;28;19930;-50
2021/12/22 00:57:55;;;;;;;;;;;-0.70;99.90;;;;;;5113543;28;19924;-50
2021/12/22 01:00:23;;;;;;;;;;;-0.80;99.90;;;;;;5116479;28;19928;-50
2021/12/22 01:02:50;;;;;;;;;;;-0.80;99.90;;;;;;5117249;28;19928;-51
2021/12/22 01:05:19;;;;;;;;;;;-0.80;99.90;;;;;;5117132;28;19924;-51
2021/12/22 01:07:47;;;;;;;;;;;-0.80;99.90;;;;;;5116045;28;19969;-50
2021/12/22 01:10:15;;;;;;;;;;;-0.80;99.90;;;;;;5112449;28;19931;-50
2021/12/22 01:12:42;;;;;;;;;;;-0.70;99.90;;;;;;5112677;28;19928;-50
2021/12/22 01:15:11;;;;;;;;;;;-0.70;99.90;;;;;;5112768;28;19927;-50
2021/12/22 01:17:42;;;;;;;;;;;-0.80;99.90;;;;;;5097127;28;20401;-50
2021/12/22 01:20:16;;;;;;;;;;;-0.60;99.90;;;;;;5107533;28;20373;-50
2021/12/22 01:22:48;;;;;;;;;;;-0.70;99.90;;;;;;5111940;28;19924;-50
2021/12/22 01:25:18;;;;;;;;;;;-0.80;99.90;;;;;;5111947;28;19930;-50
2021/12/22 01:27:45;;;;;;;;;;;-0.60;99.90;;;;;;5112549;28;19931;-50
2021/12/22 01:30:14;;;;;;;;;;;-0.60;99.90;;;;;;5112024;28;19924;-50
2021/12/22 01:32:41;;;;;;;;;;;-0.70;99.90;;;;;;5110937;28;20412;-50
2021/12/22 01:35:09;;;;;;;;;;;-0.60;99.90;;;;;;5112295;28;20381;-50
2021/12/22 01:37:36;;;;;;;;;;;-0.60;99.90;;;;;;5112325;28;19969;-50
2021/12/22 01:40:04;;;;;;;;;;;-0.70;99.90;;;;;;5111495;28;20405;-50
2021/12/22 01:42:31;;;;;;;;;;;-0.80;99.90;;;;;;5108794;28;19932;-51
2021/12/22 01:45:14;;;;;;;;;;;-0.80;99.90;;;;;;5104636;28;19963;-50
2021/12/22 01:50:31;;;;;;;;;;;-0.80;99.90;;;;;;5112405;28;19926;-50
2021/12/22 01:52:58;;;;;;;;;;;-0.80;99.90;;;;;;5111549;28;20506;-50
2021/12/22 01:55:33;;;;;;;;;;;-0.80;99.90;;;;;;5112411;28;19928;-50
2021/12/22 01:58:00;;;;;;;;;;;-0.70;99.90;;;;;;5109575;28;19931;-50
2021/12/22 02:00:28;;;;;;;;;;;-0.80;99.90;;;;;;5112179;28;20271;-49
2021/12/22 02:02:55;;;;;;;;;;;-0.90;99.90;;;;;;5112125;28;19924;-49
2021/12/22 02:05:22;;;;;;;;;;;-0.90;99.90;;;;;;5110665;28;19924;-50
2021/12/22 02:07:49;;;;;;;;;;;-0.70;99.90;;;;;;5111371;28;19924;-49
2021/12/22 02:10:34;;;;;;;;;;;-0.80;99.90;;;;;;5112006;28;20378;-50
2021/12/22 02:13:03;;;;;;;;;;;-0.80;99.90;;;;;;5112335;28;20018;-50
2021/12/22 02:15:33;;;;;;;;;;;-0.80;99.90;;;;;;5114661;28;19931;-50
2021/12/22 02:18:02;;;;;;;;;;;-0.80;99.90;;;;;;5115819;28;19924;-50
2021/12/22 02:20:30;;;;;;;;;;;-0.80;99.90;;;;;;5115764;28;19976;-50
2021/12/22 02:22:57;;;;;;;;;;;-0.80;99.90;;;;;;5115871;28;20305;-50
2021/12/22 02:25:32;;;;;;;;;;;-0.80;99.90;;;;;;5115638;28;20270;-50
2021/12/22 02:28:01;;;;;;;;;;;-0.80;99.90;;;;;;5116184;27;19928;-50
2021/12/22 02:30:29;;;;;;;;;;;-0.80;99.90;;;;;;5115585;28;19963;-50
2021/12/22 02:33:19;;;;;;;;;;;-0.90;99.90;;;;;;5115934;27;19993;-49
2021/12/22 02:35:55;;;;;;;;;;;-0.80;99.90;;;;;;5115090;28;20278;-49
2021/12/22 02:38:22;;;;;;;;;;;-0.70;99.90;;;;;;5115024;28;20450;-50
2021/12/22 02:40:50;;;;;;;;;;;-0.80;99.90;;;;;;5115389;28;19924;-50
2021/12/22 02:43:21;;;;;;;;;;;-0.90;99.90;;;;;;5115919;28;19976;-50
2021/12/22 02:45:48;;;;;;;;;;;-1.00;99.90;;;;;;5115551;28;19931;-50
2021/12/22 02:48:14;;;;;;;;;;;-0.90;99.90;;;;;;5115738;28;19976;-50
2021/12/22 02:50:42;;;;;;;;;;;-1.10;99.90;;;;;;5114841;28;19969;-50
2021/12/22 02:53:12;;;;;;;;;;;-1.10;99.90;;;;;;5114980;28;20385;-50
2021/12/22 02:55:49;;;;;;;;;;;-1.00;99.90;;;;;;5114954;28;19924;-49
2021/12/22 02:58:26;;;;;;;;;;;-0.90;99.90;;;;;;5114992;28;19931;-49
2021/12/22 03:01:07;;;;;;;;;;;-0.90;99.90;;;;;;5115249;28;20289;-50
2021/12/22 03:03:49;;;;;;;;;;;-1.00;99.90;;;;;;5115355;28;19928;-49
2021/12/22 03:06:24;;;;;;;;;;;-1.00;99.90;;;;;;5115389;28;20018;-49
2021/12/22 03:08:52;;;;;;;;;;;-1.10;99.90;;;;;;5114074;28;20327;-50
2021/12/22 03:11:19;;;;;;;;;;;-1.10;99.90;;;;;;5116708;28;20385;-50
2021/12/22 03:13:47;;;;;;;;;;;-1.20;99.90;;;;;;5115145;28;20413;-50
2021/12/22 03:16:14;;;;;;;;;;;-1.00;99.90;;;;;;5114416;28;19928;-49
2021/12/22 03:18:40;;;;;;;;;;;-1.10;99.90;;;;;;5108349;28;19981;-50
2021/12/22 03:21:18;;;;;;;;;;;-1.10;99.90;;;;;;5114779;28;20343;-50
2021/12/22 03:23:45;;;;;;;;;;;-1.20;99.90;;;;;;5114670;28;20407;-50
2021/12/22 03:26:16;;;;;;;;;;;-1.20;99.90;;;;;;5113433;28;19924;-50
2021/12/22 03:28:43;;;;;;;;;;;-1.20;99.90;;;;;;5114502;28;19924;-50
2021/12/22 03:31:10;;;;;;;;;;;-1.30;99.90;;;;;;5114469;27;19928;-50
2021/12/22 03:33:37;;;;;;;;;;;-1.10;99.90;;;;;;5115049;28;19924;-50
2021/12/22 03:36:03;;;;;;;;;;;-1.00;99.90;;;;;;5114445;28;19996;-49
2021/12/22 03:38:32;;;;;;;;;;;-0.90;99.90;;;;;;5114746;28;19976;-50
2021/12/22 03:40:59;;;;;;;;;;;-1.00;99.90;;;;;;5113751;28;20423;-50
2021/12/22 03:43:27;;;;;;;;;;;-1.00;99.90;;;;;;5114291;28;19976;-50
2021/12/22 03:45:56;;;;;;;;;;;-1.00;99.90;;;;;;5114749;28;19988;-50
2021/12/22 03:48:24;;;;;;;;;;;-1.10;99.90;;;;;;5114359;28;19931;-50
2021/12/22 03:50:51;;;;;;;;;;;-1.00;99.90;;;;;;5114053;28;19935;-50
2021/12/22 03:53:18;;;;;;;;;;;-1.10;99.90;;;;;;5113639;28;19924;-49
2021/12/22 03:55:45;;;;;;;;;;;-1.20;99.90;;;;;;5114059;28;19924;-50
2021/12/22 03:58:12;;;;;;;;;;;-1.30;99.90;;;;;;5114209;28;20000;-50
2021/12/22 04:00:41;;;;;;;;;;;-1.40;99.90;;;;;;5113024;28;19924;-49
2021/12/22 04:03:10;;;;;;;;;;;-1.70;99.90;;;;;;5113534;28;19924;-51
2021/12/22 04:05:37;;;;;;;;;;;-1.70;99.90;;;;;;5112966;28;19932;-50
2021/12/22 04:08:04;;;;;;;;;;;-1.60;99.90;;;;;;5113767;28;19931;-49
2021/12/22 04:10:31;;;;;;;;;;;-1.50;99.90;;;;;;5113448;28;19924;-50
2021/12/22 04:12:58;;;;;;;;;;;-1.50;99.90;;;;;;5112802;28;19924;-50
2021/12/22 04:15:26;;;;;;;;;;;-1.50;99.90;;;;;;5113326;28;19923;-51
2021/12/22 04:17:55;;;;;;;;;;;-1.50;99.90;;;;;;5112416;28;19932;-50
2021/12/22 04:20:22;;;;;;;;;;;-1.40;99.90;;;;;;5113400;28;20385;-49
2021/12/22 04:22:48;;;;;;;;;;;-1.40;99.90;;;;;;5112944;28;19924;-49
2021/12/22 04:25:20;;;;;;;;;;;-1.40;99.90;;;;;;5113448;28;19927;-50
2021/12/22 04:27:47;;;;;;;;;;;-1.50;99.90;;;;;;5111438;28;20297;-50
2021/12/22 04:30:14;;;;;;;;;;;-1.50;99.90;;;;;;5103047;28;19981;-50
2021/12/22 04:32:41;;;;;;;;;;;-1.50;99.90;;;;;;5112943;28;19936;-50
2021/12/22 04:35:10;;;;;;;;;;;-1.50;99.90;;;;;;5113363;28;20351;-50
2021/12/22 04:37:37;;;;;;;;;;;-1.40;99.90;;;;;;5113023;28;19924;-50
2021/12/22 04:40:04;;;;;;;;;;;-1.30;99.90;;;;;;5111196;28;19976;-50
2021/12/22 04:42:31;;;;;;;;;;;-1.40;99.90;;;;;;5110480;28;19923;-49
2021/12/22 04:45:00;;;;;;;;;;;-1.30;99.90;;;;;;5109136;28;19924;-50
2021/12/22 04:47:27;;;;;;;;;;;-1.40;99.90;;;;;;5113258;28;19924;-50
2021/12/22 04:49:54;;;;;;;;;;;-1.50;99.90;;;;;;5112896;28;20416;-50
2021/12/22 04:52:24;;;;;;;;;;;-1.50;99.90;;;;;;5112435;28;19924;-50
2021/12/22 04:55:02;;;;;;;;;;;-1.50;99.90;;;;;;5112986;28;19938;-50
2021/12/22 04:57:29;;;;;;;;;;;-1.50;99.90;;;;;;5109038;28;19924;-50
2021/12/22 04:59:56;;;;;;;;;;;-1.50;99.90;;;;;;5112130;28;19959;-50
2021/12/22 05:02:23;;;;;;;;;;;-1.50;99.90;;;;;;5107270;28;20021;-51
2021/12/22 05:04:50;;;;;;;;;;;-1.60;99.90;;;;;;5110657;28;19939;-51
2021/12/22 05:07:18;;;;;;;;;;;-1.60;99.90;;;;;;5112316;27;20390;-51
2021/12/22 05:09:47;;;;;;;;;;;-1.50;99.90;;;;;;5112872;28;19923;-51
2021/12/22 05:12:13;;;;;;;;;;;-1.50;99.90;;;;;;5112784;28;20112;-51
2021/12/22 05:14:42;;;;;;;;;;;-1.50;99.90;;;;;;5112722;28;19923;-52
2021/12/22 05:17:17;;;;;;;;;;;-1.50;99.90;;;;;;5112170;28;19976;-51
2021/12/22 05:19:44;;;;;;;;;;;-1.50;99.90;;;;;;5112683;28;19935;-51
2021/12/22 05:22:11;;;;;;;;;;;-1.50;99.90;;;;;;5112587;28;19977;-51
2021/12/22 05:24:37;;;;;;;;;;;-1.50;99.90;;;;;;5112658;28;19924;-51
2021/12/22 05:27:07;;;;;;;;;;;-1.60;99.90;;;;;;5112643;28;19928;-50
2021/12/22 05:29:34;;;;;;;;;;;-1.80;99.90;;;;;;5114164;28;19963;-51
2021/12/22 05:32:03;;;;;;;;;;;-1.70;99.90;;;;;;5124823;27;19923;-50
2021/12/22 05:34:30;;;;;;;;;;;-1.80;99.90;;;;;;5132215;27;19968;-51
2021/12/22 05:36:57;;;;;;;;;;;-1.90;99.90;;;;;;5115083;27;19923;-50
2021/12/22 05:39:24;;;;;;;;;;;-2.00;99.90;;;;;;5112180;28;20464;-50
2021/12/22 05:41:50;;;;;;;;;;;-2.10;99.90;;;;;;5112406;28;19924;-51
2021/12/22 05:44:18;;;;;;;;;;;-2.00;99.90;;;;;;5112576;28;19985;-51
2021/12/22 05:46:45;;;;;;;;;;;-2.00;99.90;;;;;;5111824;28;19976;-51
2021/12/22 05:49:12;;;;;;;;;;;-2.00;99.90;;;;;;5109877;28;20282;-51
2021/12/22 05:51:39;;;;;;;;;;;-1.90;99.90;;;;;;5113496;27;19924;-50
2021/12/22 05:54:05;;;;;;;;;;;-2.00;99.90;;;;;;5114540;28;19970;-51
2021/12/22 05:56:32;;;;;;;;;;;-1.90;99.90;;;;;;5115236;28;19924;-51
2021/12/22 05:59:00;;;;;;;;;;;-2.00;99.90;;;;;;5114546;28;20458;-51
2021/12/22 06:01:30;;;;;;;;;;;-2.10;99.90;;;;;;5116272;28;19983;-51
2021/12/22 06:03:56;;;;;;;;;;;-2.00;99.90;;;;;;5112210;28;19962;-51
2021/12/22 06:06:23;;;;;;;;;;;-2.00;99.90;;;;;;5115379;28;19924;-51
2021/12/22 06:08:50;;;;;;;;;;;-1.90;99.90;;;;;;5115318;28;19923;-50
2021/12/22 06:11:17;;;;;;;;;;;-1.90;99.90;;;;;;5114626;28;19953;-51
2021/12/22 06:13:43;;;;;;;;;;;-1.90;99.90;;;;;;5115821;28;19923;-51
2021/12/22 06:16:10;;;;;;;;;;;-1.90;99.90;;;;;;5115186;28;19985;-51
2021/12/22 06:18:43;;;;;;;;;;;-1.90;99.90;;;;;;5114669;28;19923;-50
2021/12/22 06:21:10;;;;;;;;;;;-1.80;99.90;;;;;;5112559;28;20014;-50
2021/12/22 06:23:36;;;;;;;;;;;-1.70;99.90;;;;;;5115651;28;19924;-52
2021/12/22 06:26:03;;;;;;;;;;;-1.70;99.90;;;;;;5115155;28;20083;-51
2021/12/22 06:28:30;;;;;;;;;;;-1.80;99.90;;;;;;5115590;28;20400;-51
2021/12/22 06:30:59;;;;;;;;;;;-1.80;99.90;;;;;;5115569;28;19977;-51
2021/12/22 06:33:26;;;;;;;;;;;-1.70;99.90;;;;;;5115515;28;19923;-51
2021/12/22 06:35:54;;;;;;;;;;;-1.80;99.90;;;;;;5118655;28;20377;-51
2021/12/22 06:38:21;;;;;;;;;;;-1.70;99.90;;;;;;5117498;28;20317;-50
2021/12/22 06:40:48;;;;;;;;;;;-1.70;99.90;;;;;;5117257;28;19980;-51
2021/12/22 06:43:15;;;;;;;;;;;-1.80;99.90;;;;;;5115641;28;19927;-51
2021/12/22 06:45:42;;;;;;;;;;;-1.80;99.90;;;;;;5113419;28;19985;-51
2021/12/22 06:48:09;;;;;;;;;;;-1.70;99.90;;;;;;5113998;28;19928;-51
2021/12/22 06:50:36;;;;;;;;;;;-1.80;99.90;;;;;;5114924;28;19977;-51
2021/12/22 06:53:04;;;;;;;;;;;-1.80;99.90;;;;;;5114778;28;19923;-51
2021/12/22 06:55:30;;;;;;;;;;;-1.80;99.90;;;;;;5114699;28;19924;-51
2021/12/22 06:57:59;;;;;;;;;;;-1.70;99.90;;;;;;5114864;28;19924;-51
2021/12/22 07:00:26;;;;;;;;;;;-1.70;99.90;;;;;;5110819;28;20007;-50
2021/12/22 07:02:53;;;;;;;;;;;-1.80;99.90;;;;;;5111212;28;19931;-51
2021/12/22 07:05:20;;;;;;;;;;;-1.80;99.90;;;;;;5114449;28;19976;-51
2021/12/22 07:07:47;;;;;;;;;;;-1.70;99.90;;;;;;5114571;27;19984;-51
2021/12/22 07:10:16;;;;;;;;;;;-1.70;99.90;;;;;;5114623;28;19932;-51
2021/12/22 07:12:43;;;;;;;;;;;-1.70;99.90;;;;;;5114182;28;19928;-51
2021/12/22 07:15:12;;;;;;;;;;;-1.70;99.90;;;;;;5114235;28;19924;-50
2021/12/22 07:17:39;;;;;;;;;;;-1.80;99.90;;;;;;5114288;28;20416;-51
2021/12/22 07:20:07;;;;;;;;;;;-1.80;99.90;;;;;;5114335;28;19985;-51
2021/12/22 07:22:34;;;;;;;;;;;-1.80;99.90;;;;;;5113445;28;19992;-51
2021/12/22 07:25:01;;;;;;;;;;;-1.90;99.90;;;;;;5114095;28;19976;-50
2021/12/22 07:27:29;;;;;;;;;;;-1.80;99.90;;;;;;5112773;28;19924;-51
2021/12/22 07:29:56;;;;;;;;;;;-1.90;99.90;;;;;;5114311;27;19923;-51
2021/12/22 07:32:23;;;;;;;;;;;-2.00;99.90;;;;;;5113170;28;20397;-50
2021/12/22 07:34:52;;;;;;;;;;;-2.20;99.90;;;;;;5112236;28;19969;-50
2021/12/22 07:37:23;;;;;;;;;;;-2.30;99.90;;;;;;5113758;28;19977;-50
2021/12/22 07:39:49;;;;;;;;;;;-2.10;99.90;;;;;;5114401;28;19984;-51
2021/12/22 07:42:16;;;;;;;;;;;-2.10;99.90;;;;;;5113567;28;19969;-50
2021/12/22 07:44:44;;;;;;;;;;;-2.30;99.90;;;;;;5110093;28;19924;-50
2021/12/22 07:47:11;;;;;;;;;;;-2.30;99.90;;;;;;5113598;28;19925;-50
2021/12/22 07:49:38;;;;;;;;;;;-2.20;99.90;;;;;;5113880;28;19924;-51
2021/12/22 07:52:05;;;;;;;;;;;-2.20;99.90;;;;;;5114218;28;19936;-50
2021/12/22 07:54:32;;;;;;;;;;;-2.10;99.90;;;;;;5118663;27;20294;-50
2021/12/22 07:56:59;;;;;;;;;;;-2.20;99.90;;;;;;5128328;27;19923;-50
2021/12/22 07:59:26;;;;;;;;;;;-2.30;99.90;;;;;;5112286;28;19977;-51
2021/12/22 08:01:56;;;;;;;;;;;-2.20;99.90;;;;;;5101232;28;19928;-51
2021/12/22 08:04:23;;;;;;;;;;;-2.10;99.90;;;;;;5113365;28;20298;-50
2021/12/22 08:06:50;;;;;;;;;;;-2.10;99.90;;;;;;5112863;28;19932;-50
2021/12/22 08:09:17;;;;;;;;;;;-2.00;99.90;;;;;;5107562;28;19977;-51
2021/12/22 08:11:43;;;;;;;;;;;-2.00;99.90;;;;;;5112987;28;19969;-50
2021/12/22 08:14:10;;;;;;;;;;;-2.00;99.90;;;;;;5110103;28;19961;-50
2021/12/22 08:16:37;;;;;;;;;;;-2.00;99.90;;;;;;5113639;28;19923;-50
2021/12/22 08:19:05;;;;;;;;;;;-2.00;99.90;;;;;;5110107;28;19928;-50
2021/12/22 08:21:32;;;;;;;;;;;-1.90;99.90;;;;;;5112883;28;19924;-50
2021/12/22 08:23:58;;;;;;;;;;;-2.00;99.90;;;;;;5113522;27;19969;-51
2021/12/22 08:26:25;;;;;;;;;;;-2.10;99.90;;;;;;5112777;27;20482;-51
2021/12/22 08:28:52;;;;;;;;;;;-2.10;99.90;;;;;;5112800;28;19923;-50
2021/12/22 08:31:19;;;;;;;;;;;-2.10;99.90;;;;;;5130210;27;20293;-50
2021/12/22 08:33:47;;;;;;;;;;;-1.80;99.90;;;;;;5130019;27;20281;-51
2021/12/22 08:39:04;;;;;;;;;;;-1.00;99.90;;;;;;5113353;28;19939;-50
2021/12/22 08:41:32;;;;;;;;;;;-0.40;99.90;;;;;;5112718;28;20625;-50
2021/12/22 08:44:01;;;;;;;;;;;-0.30;99.90;;;;;;5112015;28;19932;-51
2021/12/22 08:46:28;;;;;;;;;;;-0.30;99.90;;;;;;5113882;28;19924;-50
2021/12/22 08:48:55;;;;;;;;;;;-0.20;99.90;;;;;;5093740;28;19924;-50
2021/12/22 08:51:24;;;;;;;;;;;-0.10;99.90;;;;;;5093266;28;19932;-51
2021/12/22 08:53:52;;;;;;;;;;;0.00;99.90;;;;;;5093597;28;19928;-50
2021/12/22 08:56:19;;;;;;;;;;;-0.10;99.90;;;;;;5110010;28;19924;-51
2021/12/22 08:58:45;;;;;;;;;;;0.00;99.90;;;;;;5113738;28;19992;-52
2021/12/22 09:01:12;;;;;;;;;;;-0.20;99.90;;;;;;5113774;28;19924;-51
2021/12/22 09:03:39;;;;;;;;;;;0.00;99.90;;;;;;5113744;28;19924;-51
2021/12/22 09:06:05;;;;;;;;;;;-0.20;99.90;;;;;;5113274;28;19928;-51
2021/12/22 09:08:34;;;;;;;;;;;-0.30;99.90;;;;;;5113119;28;19924;-50
2021/12/22 09:11:04;;;;;;;;;;;-0.20;99.90;;;;;;5112231;28;19924;-50
2021/12/22 09:13:30;;;;;;;;;;;0.00;99.90;;;;;;5112751;28;20015;-51
2021/12/22 09:15:58;;;;;;;;;;;0.00;99.90;;;;;;5112964;28;19947;-51
2021/12/22 09:18:25;;;;;;;;;;;0.00;99.90;;;;;;5112608;28;20002;-51
2021/12/22 09:20:52;;;;;;;;;;;0.00;99.90;;;;;;5112726;28;19977;-51
2021/12/22 09:23:18;;;;;;;;;;;0.30;99.90;;;;;;5115103;28;19924;-51
2021/12/22 09:25:46;;;;;;;;;;;0.50;99.90;;;;;;5111808;28;20362;-52
2021/12/22 09:28:14;;;;;;;;;;;0.50;99.90;;;;;;5112755;28;19924;-51
2021/12/22 09:30:41;;;;;;;;;;;0.70;99.90;;;;;;5112764;28;19924;-51
2021/12/22 09:33:11;;;;;;;;;;;1.20;99.90;;;;;;5112276;28;19928;-51
2021/12/22 09:35:38;;;;;;;;;;;1.30;99.90;;;;;;5112985;28;19950;-51
2021/12/22 09:38:05;;;;;;;;;;;1.30;99.90;;;;;;5112695;28;20343;-51
2021/12/22 09:40:32;;;;;;;;;;;1.20;99.90;;;;;;5112615;28;19980;-51
2021/12/22 09:43:00;;;;;;;;;;;1.00;99.90;;;;;;5111761;28;19924;-51
2021/12/22 09:45:27;;;;;;;;;;;1.00;99.90;;;;;;5112348;28;19984;-51
2021/12/22 09:48:17;;;;;;;;;;;1.10;99.90;;;;;;5112585;28;19932;-51
2021/12/22 09:50:48;;;;;;;;;;;1.20;99.90;;;;;;5112489;28;20023;-51
2021/12/22 09:53:15;;;;;;;;;;;1.20;99.90;;;;;;5112250;28;19924;-51
2021/12/22 09:55:42;;;;;;;;;;;1.20;99.90;;;;;;5112118;28;19928;-51
2021/12/22 09:58:11;;;;;;;;;;;1.20;99.90;;;;;;5112033;28;19928;-51
2021/12/22 10:00:39;;;;;;;;;;;1.20;99.90;;;;;;5107525;28;19924;-51
2021/12/22 10:03:07;;;;;;;;;;;1.30;99.90;;;;;;5112135;28;19944;-51
2021/12/22 10:05:34;;;;;;;;;;;1.60;99.90;;;;;;5112352;28;19948;-52
2021/12/22 10:08:05;;;;;;;;;;;1.90;99.90;;;;;;5111912;28;19927;-52
2021/12/22 10:10:31;;;;;;;;;;;1.70;99.90;;;;;;5122426;22;19931;-47
2021/12/22 10:13:04;;;;;;;;;;;1.60;99.90;;;;;;5069590;28;19928;-48
2021/12/22 10:15:34;;;;;;;;;;;1.50;99.90;;;;;;5106695;28;19928;-47
2021/12/22 10:18:07;;;;;;;;;;;1.20;99.90;;;;;;5108703;28;19951;-47
2021/12/22 10:20:34;;;;;;;;;;;1.20;99.90;;;;;;5110735;28;19984;-48
2021/12/22 10:23:01;;;;;;;;;;;0.80;99.90;;;;;;5110097;28;20057;-47
2021/12/22 10:25:31;;;;;;;;;;;1.00;99.90;;;;;;5109785;28;19928;-47
2021/12/22 10:27:59;;;;;;;;;;;1.10;99.90;;;;;;5090064;28;20369;-48
2021/12/22 10:30:30;;;;;;;;;;;1.30;99.90;;;;;;5092088;28;19978;-48
2021/12/22 10:33:21;;;;;;;;;;;1.20;99.90;;;;;;5069698;28;19928;-47
2021/12/22 10:35:50;;;;;;;;;;;1.60;99.90;;;;;;5055505;28;20028;-47
2021/12/22 10:38:17;;;;;;;;;;;2.60;99.90;;;;;;5072900;28;19929;-47
2021/12/22 10:40:45;;;;;;;;;;;3.00;99.90;;;;;;5084906;28;19978;-47
2021/12/22 10:43:16;;;;;;;;;;;3.00;99.90;;;;;;5092962;28;20687;-48
2021/12/22 10:45:45;;;;;;;;;;;2.70;99.90;;;;;;5094115;28;19989;-47
2021/12/22 10:50:58;;;;;;;;;;;2.20;99.90;;;;;;5087724;28;19919;-48
2021/12/22 10:53:25;;;;;;;;;;;2.10;99.90;;;;;;5113654;28;19992;-47
2021/12/22 10:55:53;;;;;;;;;;;2.00;99.90;;;;;;5101124;28;19970;-48
2021/12/22 10:58:24;;;;;;;;;;;1.60;99.90;;;;;;5096205;28;20390;-47
2021/12/22 11:01:02;;;;;;;;;;;1.40;99.90;;;;;;5113541;28;19924;-49
2021/12/22 11:03:34;;;;;;;;;;;1.30;99.90;;;;;;5113602;28;19924;-49
2021/12/22 11:06:03;;;;;;;;;;;1.30;99.90;;;;;;5114008;28;20265;-47
2021/12/22 11:08:29;;;;;;;;;;;1.30;99.90;;;;;;5113339;28;20409;-47
2021/12/22 11:10:56;;;;;;;;;;;1.40;99.90;;;;;;5093554;28;19936;-47
2021/12/22 11:13:24;;;;;;;;;;;1.40;99.90;;;;;;5107260;28;19931;-47
2021/12/22 11:15:51;;;;;;;;;;;1.20;99.90;;;;;;5111925;28;19931;-47
2021/12/22 11:18:28;;;;;;;;;;;1.20;99.90;;;;;;5113452;28;20285;-47
2021/12/22 11:21:11;;;;;;;;;;;1.40;99.90;;;;;;5112217;28;19924;-48
2021/12/22 11:23:38;;;;;;;;;;;1.60;99.90;;;;;;5091145;28;19924;-48
2021/12/22 11:26:05;;;;;;;;;;;1.60;99.90;;;;;;5096624;28;19924;-47
2021/12/22 11:28:34;;;;;;;;;;;1.50;99.90;;;;;;5119449;28;19923;-47
2021/12/22 11:31:02;;;;;;;;;;;1.40;99.90;;;;;;5117290;28;19958;-48
2021/12/22 11:33:30;;;;;;;;;;;1.70;99.90;;;;;;5093697;28;19928;-47
2021/12/22 11:36:00;;;;;;;;;;;1.70;99.90;;;;;;5092690;28;20361;-48
2021/12/22 11:38:30;;;;;;;;;;;1.70;99.90;;;;;;5093271;28;19925;-47
2021/12/22 11:41:08;;;;;;;;;;;1.90;99.90;;;;;;5111270;28;19969;-47
2021/12/22 11:43:36;;;;;;;;;;;1.80;99.90;;;;;;5113733;28;19924;-48
2021/12/22 11:46:03;;;;;;;;;;;1.40;99.90;;;;;;5113734;28;19940;-47
2021/12/22 11:48:30;;;;;;;;;;;1.40;99.90;;;;;;5113296;28;20356;-48
2021/12/22 11:50:57;;;;;;;;;;;1.40;99.90;;;;;;5100826;28;20423;-46
2021/12/22 11:53:24;;;;;;;;;;;1.30;99.90;;;;;;5092145;28;19931;-48
2021/12/22 11:55:55;;;;;;;;;;;1.10;99.90;;;;;;5090667;28;19928;-47
2021/12/22 11:58:24;;;;;;;;;;;0.90;99.90;;;;;;5093566;28;20023;-47
2021/12/22 12:01:08;;;;;;;;;;;0.80;99.90;;;;;;5092668;28;19928;-47
2021/12/22 12:03:36;;;;;;;;;;;0.80;99.90;;;;;;5072250;28;19986;-47
2021/12/22 12:06:11;;;;;;;;;;;0.70;99.90;;;;;;5072311;28;20365;-47
2021/12/22 12:08:39;;;;;;;;;;;0.70;99.90;;;;;;5095441;28;19928;-46
2021/12/22 12:11:08;;;;;;;;;;;0.80;99.90;;;;;;5071856;28;19931;-47
2021/12/22 12:13:45;;;;;;;;;;;0.70;99.90;;;;;;5088600;28;19924;-48
2021/12/22 12:21:52;;;;;;;;;;;0.90;99.90;;;;;;5098190;28;19927;-48
2021/12/22 12:24:39;;;;;;;;;;;0.90;99.90;;;;;;5112778;28;19923;-49
2021/12/22 12:27:24;;;;;;;;;;;0.80;99.90;;;;;;5113303;28;19931;-47
2021/12/22 12:29:56;;;;;;;;;;;0.90;99.90;;;;;;5097108;28;19930;-48
2021/12/22 12:32:40;;;;;;;;;;;0.80;99.90;;;;;;5091773;28;20361;-47
2021/12/22 12:35:23;;;;;;;;;;;0.70;99.90;;;;;;5092723;28;20281;-48
2021/12/22 12:38:00;;;;;;;;;;;0.70;99.90;;;;;;5112139;28;20251;-48
2021/12/22 12:40:42;;;;;;;;;;;0.60;99.90;;;;;;5101792;28;19924;-48
2021/12/22 12:43:08;;;;;;;;;;;0.70;99.90;;;;;;5091347;28;20324;-47
2021/12/22 12:45:43;;;;;;;;;;;0.60;99.90;;;;;;5092203;28;19931;-48
2021/12/22 12:48:26;;;;;;;;;;;0.70;99.90;;;;;;5091427;28;19931;-47
2021/12/22 12:51:11;;;;;;;;;;;0.50;99.90;;;;;;5092109;28;20006;-47
2021/12/22 12:53:39;;;;;;;;;;;0.30;99.90;;;;;;5092437;28;19928;-48
2021/12/22 12:56:08;;;;;;;;;;;0.20;99.90;;;;;;5071029;28;19982;-46
2021/12/22 12:58:35;;;;;;;;;;;0.10;99.90;;;;;;5070828;28;20018;-48
2021/12/22 13:01:04;;;;;;;;;;;0.30;99.90;;;;;;5070520;28;19928;-48
2021/12/22 13:03:46;;;;;;;;;;;0.30;99.90;;;;;;5083790;28;19924;-47
2021/12/22 13:06:13;;;;;;;;;;;0.20;99.90;;;;;;5111799;28;19928;-47
2021/12/22 13:08:40;;;;;;;;;;;0.20;99.90;;;;;;5109001;28;19945;-47
2021/12/22 13:11:11;;;;;;;;;;;0.30;99.90;;;;;;5102995;28;19977;-48
2021/12/22 13:15:45;;;;;;;;;;;0.30;99.90;;;;;;5092494;28;19947;-48
2021/12/22 13:16:40;;;;;;;;;;;0.40;99.90;;;;;;5091335;28;19946;-47
2021/12/22 13:19:07;;;;;;;;;;;0.40;99.90;;;;;;5077793;28;19925;-47
2021/12/22 13:21:34;;;;;;;;;;;0.30;99.90;;;;;;5126102;28;19935;-48
2021/12/22 13:24:01;;;;;;;;;;;0.30;99.90;;;;;;5109323;28;19993;-47
2021/12/22 13:26:27;;;;;;;;;;;0.10;99.90;;;;;;5096608;28;19993;-47
2021/12/22 13:28:54;;;;;;;;;;;-0.10;99.90;;;;;;5106341;28;20053;-48
2021/12/22 13:31:21;;;;;;;;;;;-0.10;99.90;;;;;;5098990;28;20391;-48
2021/12/22 13:34:02;;;;;;;;;;;-0.10;99.90;;;;;;5070812;28;20000;-48
2021/12/22 13:36:29;;;;;;;;;;;0.00;99.90;;;;;;5070774;28;19925;-47
2021/12/22 13:38:58;;;;;;;;;;;0.10;99.90;;;;;;5070793;28;19931;-48
2021/12/22 13:41:29;;;;;;;;;;;0.20;99.90;;;;;;5080241;28;20011;-48
2021/12/22 13:43:57;;;;;;;;;;;0.20;99.90;;;;;;5111519;28;19924;-48
2021/12/22 13:46:25;;;;;;;;;;;0.20;99.90;;;;;;5085958;28;19932;-47
2021/12/22 13:48:54;;;;;;;;;;;0.20;99.90;;;;;;5094795;28;19924;-48
2021/12/22 13:51:22;;;;;;;;;;;0.10;99.90;;;;;;5090492;28;19928;-48
2021/12/22 13:53:49;;;;;;;;;;;0.00;99.90;;;;;;5090798;28;20001;-48
2021/12/22 13:56:17;;;;;;;;;;;-0.10;99.90;;;;;;5091250;28;19977;-47
2021/12/22 13:58:44;;;;;;;;;;;0.00;99.90;;;;;;5087850;28;20416;-47
2021/12/22 14:01:29;;;;;;;;;;;-0.20;99.90;;;;;;5079896;28;20084;-49
2021/12/22 14:04:05;;;;;;;;;;;-0.30;99.90;;;;;;5076707;28;20110;-48
2021/12/22 14:06:33;;;;;;;;;;;-0.30;99.90;;;;;;5071195;28;20285;-48
2021/12/22 14:09:01;;;;;;;;;;;-0.40;99.90;;;;;;5071409;28;20408;-47
2021/12/22 14:11:29;;;;;;;;;;;-0.40;99.90;;;;;;5112220;28;19981;-47
2021/12/22 14:13:56;;;;;;;;;;;-0.30;99.90;;;;;;5100207;28;19924;-48
2021/12/22 14:16:27;;;;;;;;;;;-0.30;99.90;;;;;;5094342;28;19974;-48
2021/12/22 14:18:53;;;;;;;;;;;-0.60;99.90;;;;;;5094803;28;19950;-48
2021/12/22 14:21:23;;;;;;;;;;;-0.60;99.90;;;;;;5094575;28;20365;-48
2021/12/22 14:23:59;;;;;;;;;;;-0.60;99.90;;;;;;5096499;28;19985;-47
2021/12/22 14:26:26;;;;;;;;;;;-0.70;99.90;;;;;;5098747;28;19924;-47
2021/12/22 14:29:04;;;;;;;;;;;-0.80;99.90;;;;;;5096534;28;20110;-47
2021/12/22 14:31:31;;;;;;;;;;;-0.70;99.90;;;;;;5094048;28;19931;-46
2021/12/22 14:34:05;;;;;;;;;;;-0.80;99.90;;;;;;5107815;28;19929;-46
2021/12/22 14:36:43;;;;;;;;;;;-0.90;99.90;;;;;;5094012;28;19928;-47
2021/12/22 14:39:09;;;;;;;;;;;-0.90;99.90;;;;;;5094739;28;19928;-46
2021/12/22 14:41:36;;;;;;;;;;;-0.90;99.90;;;;;;5114776;28;19969;-47
2021/12/22 14:44:03;;;;;;;;;;;-0.90;99.90;;;;;;5115267;28;20549;-46
2021/12/22 14:46:31;;;;;;;;;;;-0.90;99.90;;;;;;5115405;27;20338;-46